createdAt,value
2023-05-21T00:01:48.558Z,3.35
2023-05-21T00:04:17.608Z,3.25
2023-05-21T00:06:45.400Z,3.45
2023-05-21T00:09:13.734Z,3.22
2023-05-21T00:11:41.540Z,3.50
2023-05-21T00:14:09.511Z,3.25
2023-05-21T00:16:38.733Z,3.38
2023-05-21T00:19:06.623Z,2.90
2023-05-21T00:21:34.585Z,3.50
2023-05-21T00:24:02.345Z,3.42
2023-05-21T00:26:30.263Z,3.42
2023-05-21T00:28:58.104Z,3.72
2023-05-21T00:31:25.979Z,3.50
2023-05-21T00:33:55.229Z,3.47
2023-05-21T00:36:23.768Z,3.35
2023-05-21T00:38:52.262Z,3.05
2023-05-21T00:41:22.745Z,3.30
2023-05-21T00:43:50.566Z,3.13
2023-05-21T00:46:20.989Z,3.13
2023-05-21T00:48:50.524Z,2.83
2023-05-21T00:51:21.950Z,2.72
2023-05-21T00:53:52.566Z,3.40
2023-05-21T00:56:21.398Z,3.47
2023-05-21T00:58:49.463Z,2.58
2023-05-21T01:01:18.619Z,2.60
2023-05-21T01:03:48.568Z,2.53
2023-05-21T01:06:16.604Z,2.60
2023-05-21T01:08:46.705Z,3.03
2023-05-21T01:11:15.487Z,3.10
2023-05-21T01:13:44.134Z,2.90
2023-05-21T01:16:13.637Z,2.33
2023-05-21T01:18:45.230Z,2.95
2023-05-21T01:21:13.681Z,3.97
2023-05-21T01:23:43.208Z,3.00
2023-05-21T01:26:12.972Z,2.90
2023-05-21T01:28:40.737Z,2.53
2023-05-21T01:31:24.550Z,2.90
2023-05-21T01:33:54.390Z,2.55
2023-05-21T01:36:26.770Z,2.78
2023-05-21T01:39:01.237Z,2.97
2023-05-21T01:41:34.404Z,3.00
2023-05-21T01:44:04.636Z,2.78
2023-05-21T01:46:36.048Z,2.97
2023-05-21T01:49:05.503Z,3.17
2023-05-21T01:51:33.636Z,2.75
2023-05-21T01:54:03.216Z,2.75
2023-05-21T01:56:33.919Z,3.55
2023-05-21T01:59:01.827Z,2.75
2023-05-21T02:01:30.776Z,2.85
2023-05-21T02:03:58.950Z,3.17
2023-05-21T02:06:26.944Z,2.72
2023-05-21T02:08:55.589Z,3.05
2023-05-21T02:11:24.823Z,3.35
2023-05-21T02:13:52.679Z,2.97
2023-05-21T02:16:22.505Z,3.08
2023-05-21T02:18:52.299Z,2.75
2023-05-21T02:21:20.742Z,3.05
2023-05-21T02:23:48.621Z,2.63
2023-05-21T02:26:17.499Z,3.10
2023-05-21T02:28:46.673Z,3.15
2023-05-21T02:31:14.503Z,3.10
2023-05-21T02:33:43.098Z,2.95
2023-05-21T02:36:13.148Z,3.40
2023-05-21T02:38:43.893Z,2.80
2023-05-21T02:41:12.127Z,3.03
2023-05-21T02:43:40.267Z,3.38
2023-05-21T02:46:09.677Z,3.03
2023-05-21T02:48:37.568Z,3.70
2023-05-21T02:51:05.585Z,3.17
2023-05-21T02:53:33.351Z,3.13
2023-05-21T02:56:01.196Z,3.30
2023-05-21T02:58:28.927Z,3.25
2023-05-21T03:00:56.685Z,3.22
2023-05-21T03:03:26.092Z,3.28
2023-05-21T03:05:54.049Z,3.72
2023-05-21T03:08:22.323Z,3.67
2023-05-21T03:10:50.210Z,3.53
2023-05-21T03:13:18.014Z,3.45
2023-05-21T03:15:46.630Z,4.32
2023-05-21T03:18:14.490Z,4.13
2023-05-21T03:20:45.422Z,3.58
2023-05-21T03:23:16.487Z,3.78
2023-05-21T03:25:46.020Z,3.38
2023-05-21T03:28:13.923Z,3.67
2023-05-21T03:30:41.977Z,3.92
2023-05-21T03:33:11.185Z,4.05
2023-05-21T03:35:39.215Z,4.07
2023-05-21T03:38:08.486Z,3.70
2023-05-21T03:40:36.248Z,4.20
2023-05-21T03:43:04.047Z,4.13
2023-05-21T03:45:31.809Z,3.85
2023-05-21T03:47:59.626Z,3.72
2023-05-21T03:50:27.417Z,4.10
2023-05-21T03:52:55.213Z,3.92
2023-05-21T03:55:24.370Z,4.13
2023-05-21T03:57:52.175Z,4.95
2023-05-21T04:00:20.086Z,4.07
2023-05-21T04:02:48.118Z,4.13
2023-05-21T04:05:15.987Z,4.03
2023-05-21T04:07:46.453Z,4.20
2023-05-21T04:10:14.326Z,3.85
2023-05-21T04:12:43.499Z,3.80
2023-05-21T04:15:12.568Z,4.03
2023-05-21T04:17:40.496Z,4.60
2023-05-21T04:20:09.438Z,3.40
2023-05-21T04:22:37.254Z,4.20
2023-05-21T04:25:05.550Z,4.00
2023-05-21T04:27:34.597Z,4.88
2023-05-21T04:30:05.053Z,4.20
2023-05-21T04:32:34.862Z,4.22
2023-05-21T04:35:02.761Z,4.00
2023-05-21T04:37:31.544Z,4.15
2023-05-21T04:40:02.808Z,4.03
2023-05-21T04:42:30.880Z,3.72
2023-05-21T04:44:59.505Z,4.22
2023-05-21T04:47:30.345Z,4.80
2023-05-21T04:49:59.399Z,4.47
2023-05-21T04:52:27.226Z,4.32
2023-05-21T04:54:55.035Z,4.60
2023-05-21T04:57:24.553Z,4.10
2023-05-21T04:59:52.666Z,4.68
2023-05-21T05:02:20.504Z,4.43
2023-05-21T05:04:49.665Z,4.10
2023-05-21T05:07:18.115Z,5.00
2023-05-21T05:09:45.894Z,4.47
2023-05-21T05:12:13.710Z,4.20
2023-05-21T05:14:41.801Z,4.25
2023-05-21T05:17:10.584Z,4.80
2023-05-21T05:19:38.429Z,4.55
2023-05-21T05:22:08.030Z,4.78
2023-05-21T05:24:35.823Z,4.07
2023-05-21T05:27:03.723Z,4.22
2023-05-21T05:29:31.681Z,4.28
2023-05-21T05:31:59.447Z,4.45
2023-05-21T05:34:27.204Z,4.57
2023-05-21T05:36:54.997Z,5.00
2023-05-21T05:39:24.164Z,4.50
2023-05-21T05:41:51.920Z,4.40
2023-05-21T05:44:19.692Z,4.25
2023-05-21T05:46:47.556Z,4.18
2023-05-21T05:49:15.471Z,4.13
2023-05-21T05:51:43.266Z,4.13
2023-05-21T05:54:11.031Z,4.10
2023-05-21T05:56:40.382Z,4.10
2023-05-21T05:59:08.157Z,4.30
2023-05-21T06:01:36.007Z,4.95
2023-05-21T06:04:03.790Z,4.28
2023-05-21T06:06:31.637Z,4.45
2023-05-21T06:08:59.430Z,4.07
2023-05-21T06:11:27.238Z,4.38
2023-05-21T06:13:56.740Z,4.30
2023-05-21T06:16:24.621Z,4.00
2023-05-21T06:18:52.441Z,5.15
2023-05-21T06:21:20.235Z,4.50
2023-05-21T06:23:48.008Z,4.38
2023-05-21T06:26:15.811Z,4.50
2023-05-21T06:28:43.585Z,4.88
2023-05-21T06:31:13.686Z,4.85
2023-05-21T06:33:41.774Z,5.03
2023-05-21T06:36:10.002Z,4.28
2023-05-21T06:38:37.848Z,4.88
2023-05-21T06:41:05.705Z,4.22
2023-05-21T06:43:33.529Z,4.38
2023-05-21T06:46:01.561Z,4.55
2023-05-21T06:48:31.085Z,4.80
2023-05-21T06:50:58.938Z,4.45
2023-05-21T06:53:26.720Z,4.57
2023-05-21T06:55:54.624Z,4.45
2023-05-21T06:58:22.620Z,4.43
2023-05-21T07:00:50.476Z,5.15
2023-05-21T07:03:18.451Z,5.15
2023-05-21T07:05:47.810Z,4.53
2023-05-21T07:08:15.603Z,5.35
2023-05-21T07:10:43.408Z,5.07
2023-05-21T07:13:11.319Z,5.25
2023-05-21T07:15:39.198Z,5.40
2023-05-21T07:18:07.874Z,5.20
2023-05-21T07:20:35.764Z,5.25
2023-05-21T07:23:04.898Z,5.35
2023-05-21T07:25:32.805Z,5.38
2023-05-21T07:28:00.938Z,5.25
2023-05-21T07:30:28.730Z,5.85
2023-05-21T07:32:56.535Z,5.50
2023-05-21T07:35:24.319Z,5.55
2023-05-21T07:37:52.221Z,4.78
2023-05-21T07:40:21.415Z,5.80
2023-05-21T07:42:49.266Z,4.88
2023-05-21T07:45:17.140Z,5.68
2023-05-21T07:47:46.858Z,5.70
2023-05-21T07:50:15.369Z,5.82
2023-05-21T07:52:43.313Z,5.78
2023-05-21T07:55:12.519Z,5.78
2023-05-21T07:57:41.842Z,5.55
2023-05-21T08:00:11.099Z,5.78
2023-05-21T08:02:39.042Z,5.53
2023-05-21T08:05:07.749Z,5.47
2023-05-21T08:07:36.461Z,5.80
2023-05-21T08:10:05.172Z,5.47
2023-05-21T08:12:33.094Z,5.95
2023-05-21T08:15:02.348Z,5.53
2023-05-21T08:17:30.178Z,5.35
2023-05-21T08:19:58.101Z,5.70
2023-05-21T08:22:25.901Z,6.35
2023-05-21T08:24:53.740Z,5.65
2023-05-21T08:27:21.498Z,5.97
2023-05-21T08:29:49.340Z,5.47
2023-05-21T08:32:18.532Z,5.40
2023-05-21T08:34:46.560Z,5.68
2023-05-21T08:37:14.397Z,5.45
2023-05-21T08:39:42.414Z,6.20
2023-05-21T08:42:25.587Z,5.82
2023-05-21T08:45:06.464Z,6.53
2023-05-21T08:47:37.077Z,6.18
2023-05-21T08:50:06.617Z,6.00
2023-05-21T08:52:34.470Z,5.72
2023-05-21T08:55:04.507Z,5.68
2023-05-21T08:57:32.909Z,6.03
2023-05-21T09:00:01.992Z,6.15
2023-05-21T09:02:34.304Z,5.30
2023-05-21T09:05:05.028Z,5.53
2023-05-21T09:07:39.008Z,5.70
2023-05-21T09:10:13.127Z,5.28
2023-05-21T09:12:41.005Z,5.60
2023-05-21T09:15:09.741Z,6.00
2023-05-21T09:17:37.689Z,5.82
2023-05-21T09:20:13.572Z,5.90
2023-05-21T09:22:42.689Z,5.72
2023-05-21T09:25:12.051Z,6.10
2023-05-21T09:27:40.621Z,5.95
2023-05-21T09:30:12.740Z,5.90
2023-05-21T09:32:41.007Z,6.05
2023-05-21T09:35:12.391Z,6.05
2023-05-21T09:37:44.221Z,6.10
2023-05-21T09:40:14.176Z,6.18
2023-05-21T09:42:42.980Z,6.13
2023-05-21T09:45:11.701Z,5.72
2023-05-21T09:47:44.509Z,6.57
2023-05-21T09:50:14.633Z,5.88
2023-05-21T09:52:42.816Z,5.93
2023-05-21T09:55:13.334Z,5.57
2023-05-21T09:57:45.701Z,6.00
2023-05-21T10:00:20.159Z,5.90
2023-05-21T10:02:48.838Z,6.32
2023-05-21T10:05:18.750Z,6.20
2023-05-21T10:07:51.356Z,6.22
2023-05-21T10:10:21.619Z,5.50
2023-05-21T10:12:55.864Z,5.97
2023-05-21T10:15:26.172Z,5.88
2023-05-21T10:17:55.745Z,5.63
2023-05-21T10:20:25.449Z,6.03
2023-05-21T10:22:55.809Z,6.43
2023-05-21T10:25:24.697Z,5.80
2023-05-21T10:27:55.417Z,6.07
2023-05-21T10:30:24.513Z,6.07
2023-05-21T10:32:52.782Z,5.88
2023-05-21T10:35:20.988Z,6.05
2023-05-21T10:37:52.160Z,5.80
2023-05-21T10:40:19.997Z,5.45
2023-05-21T10:43:08.022Z,5.72
2023-05-21T10:45:50.414Z,5.97
2023-05-21T10:48:29.923Z,5.95
2023-05-21T10:51:19.375Z,5.20
2023-05-21T10:54:09.447Z,5.65
2023-05-21T10:56:42.800Z,5.80
2023-05-21T10:59:23.126Z,5.30
2023-05-21T11:01:53.019Z,5.22
2023-05-21T11:04:24.228Z,5.32
2023-05-21T11:06:52.239Z,5.32
2023-05-21T11:09:21.624Z,5.13
2023-05-21T11:11:52.417Z,5.78
2023-05-21T11:14:36.765Z,5.80
2023-05-21T11:17:11.143Z,7.22
2023-05-21T11:19:40.769Z,5.63
2023-05-21T11:22:10.306Z,5.78
2023-05-21T11:24:44.052Z,5.45
2023-05-21T11:29:44.914Z,5.72
2023-05-21T11:32:17.537Z,5.90
2023-05-21T11:34:49.766Z,6.50
2023-05-21T11:37:34.725Z,5.22
2023-05-21T11:42:58.389Z,5.68
2023-05-21T11:45:31.905Z,5.85
2023-05-21T11:48:00.183Z,6.07
2023-05-21T11:50:30.642Z,5.93
2023-05-21T11:53:00.265Z,6.13
2023-05-21T11:55:28.641Z,5.65
2023-05-21T11:57:59.512Z,5.95
2023-05-21T12:00:27.439Z,6.53
2023-05-21T12:02:56.109Z,5.90
2023-05-21T12:05:24.938Z,5.97
2023-05-21T12:07:54.690Z,5.55
2023-05-21T12:10:23.808Z,6.13
2023-05-21T12:12:55.588Z,6.80
2023-05-21T12:15:27.787Z,6.25
2023-05-21T12:17:56.365Z,6.70
2023-05-21T12:20:24.517Z,6.40
2023-05-21T12:22:52.832Z,6.38
2023-05-21T12:25:21.357Z,6.75
2023-05-21T12:27:52.719Z,6.07
2023-05-21T12:30:21.921Z,6.03
2023-05-21T12:32:52.467Z,6.18
2023-05-21T12:35:24.543Z,5.38
2023-05-21T12:37:53.156Z,6.35
2023-05-21T12:40:22.331Z,6.18
2023-05-21T12:42:51.735Z,6.50
2023-05-21T12:45:22.100Z,6.65
2023-05-21T12:47:56.157Z,6.35
2023-05-21T12:50:24.649Z,5.75
2023-05-21T12:52:55.970Z,6.45
2023-05-21T12:55:25.780Z,6.57
2023-05-21T12:58:02.696Z,7.75
2023-05-21T13:00:30.586Z,7.18
2023-05-21T13:03:04.496Z,6.47
2023-05-21T13:05:32.786Z,6.55
2023-05-21T13:08:00.716Z,6.70
2023-05-21T13:10:28.507Z,7.13
2023-05-21T13:12:56.562Z,6.82
2023-05-21T13:15:24.403Z,6.00
2023-05-21T13:17:54.305Z,6.57
2023-05-21T13:20:27.466Z,6.10
2023-05-21T13:22:55.761Z,6.45
2023-05-21T13:25:28.409Z,6.90
2023-05-21T13:27:56.906Z,5.80
2023-05-21T13:30:24.713Z,7.13
2023-05-21T13:32:52.830Z,6.35
2023-05-21T13:35:21.143Z,7.03
2023-05-21T13:37:50.332Z,6.22
2023-05-21T13:40:18.594Z,5.93
2023-05-21T13:42:47.747Z,6.00
2023-05-21T13:45:17.797Z,6.28
2023-05-21T13:47:47.981Z,6.07
2023-05-21T13:50:16.750Z,5.95
2023-05-21T13:52:44.684Z,9.57
2023-05-21T13:55:15.808Z,6.60
2023-05-21T13:57:44.111Z,5.78
2023-05-21T14:00:14.351Z,6.25
2023-05-21T14:02:43.903Z,6.28
2023-05-21T14:05:13.225Z,8.07
2023-05-21T14:07:41.992Z,6.18
2023-05-21T14:10:10.644Z,6.22
2023-05-21T14:12:40.825Z,5.82
2023-05-21T14:15:09.790Z,6.47
2023-05-21T14:17:40.327Z,6.82
2023-05-21T14:20:10.611Z,6.00
2023-05-21T14:22:39.397Z,6.22
2023-05-21T14:25:08.173Z,6.43
2023-05-21T14:27:37.979Z,5.47
2023-05-21T14:30:08.871Z,5.50
2023-05-21T14:32:36.726Z,5.88
2023-05-21T14:35:06.135Z,5.65
2023-05-21T14:37:33.999Z,6.63
2023-05-21T14:40:01.789Z,12.90
2023-05-21T14:42:30.484Z,48.35
2023-05-21T14:44:58.966Z,14.07
2023-05-21T14:47:28.350Z,13.02
2023-05-21T14:49:56.290Z,17.40
2023-05-21T14:52:25.264Z,43.47
2023-05-21T14:54:55.528Z,8.50
2023-05-21T14:57:23.476Z,6.60
2023-05-21T14:59:51.495Z,7.78
2023-05-21T15:02:19.475Z,5.75
2023-05-21T15:04:48.835Z,5.80
2023-05-21T15:07:16.792Z,6.03
2023-05-21T15:09:44.666Z,5.72
2023-05-21T15:12:12.488Z,5.63
2023-05-21T15:14:40.960Z,5.30
2023-05-21T15:17:08.849Z,5.28
2023-05-21T15:19:37.367Z,6.47
2023-05-21T15:22:06.877Z,5.65
2023-05-21T15:24:34.687Z,6.25
2023-05-21T15:27:02.488Z,5.13
2023-05-21T15:29:30.434Z,5.72
2023-05-21T15:31:58.644Z,5.60
2023-05-21T15:34:26.559Z,5.75
2023-05-21T15:36:54.507Z,5.90
2023-05-21T15:39:23.865Z,6.10
2023-05-21T15:41:53.548Z,6.07
2023-05-21T15:44:21.399Z,7.03
2023-05-21T15:46:50.200Z,32.83
2023-05-21T15:49:18.403Z,48.58
2023-05-21T15:51:47.002Z,19.95
2023-05-21T15:54:14.910Z,8.18
2023-05-21T15:56:51.125Z,7.90
2023-05-21T15:59:19.095Z,6.78
2023-05-21T16:01:46.970Z,5.72
2023-05-21T16:04:16.092Z,6.07
2023-05-21T16:06:44.133Z,7.43
2023-05-21T16:09:12.168Z,5.95
2023-05-21T16:11:41.704Z,9.73
2023-05-21T16:14:11.814Z,7.10
2023-05-21T16:16:41.808Z,6.32
2023-05-21T16:19:10.064Z,5.90
2023-05-21T16:21:38.860Z,8.65
2023-05-21T16:24:07.458Z,8.07
2023-05-21T16:26:35.886Z,6.50
2023-05-21T16:29:04.307Z,5.82
2023-05-21T16:31:34.942Z,7.00
2023-05-21T16:34:03.455Z,5.82
2023-05-21T16:36:31.754Z,5.60
2023-05-21T16:38:59.629Z,7.20
2023-05-21T16:41:27.566Z,6.05
2023-05-21T16:43:55.514Z,5.55
2023-05-21T16:46:25.041Z,7.53
2023-05-21T16:48:54.205Z,6.75
2023-05-21T16:51:22.297Z,6.63
2023-05-21T16:53:50.420Z,6.13
2023-05-21T16:56:19.498Z,6.57
2023-05-21T16:58:47.276Z,5.43
2023-05-21T17:01:15.316Z,4.95
2023-05-21T17:03:43.582Z,5.70
2023-05-21T17:06:13.891Z,6.07
2023-05-21T17:08:43.246Z,6.35
2023-05-21T17:11:11.233Z,7.25
2023-05-21T17:13:47.937Z,5.70
2023-05-21T17:16:16.691Z,5.68
2023-05-21T17:18:44.631Z,5.88
2023-05-21T17:21:15.236Z,6.03
2023-05-21T17:23:43.405Z,5.93
2023-05-21T17:26:13.292Z,5.85
2023-05-21T17:28:41.961Z,6.05
2023-05-21T17:31:10.318Z,5.70
2023-05-21T17:33:38.666Z,5.82
2023-05-21T17:36:06.741Z,5.45
2023-05-21T17:38:36.041Z,4.95
2023-05-21T17:41:04.266Z,5.90
2023-05-21T17:43:32.105Z,5.88
2023-05-21T17:46:00.018Z,5.10
2023-05-21T17:48:27.860Z,6.25
2023-05-21T17:50:55.713Z,6.05
2023-05-21T17:53:24.167Z,5.47
2023-05-21T17:55:53.365Z,5.22
2023-05-21T17:58:21.239Z,5.78
2023-05-21T18:00:49.206Z,5.82
2023-05-21T18:03:17.168Z,5.97
2023-05-21T18:05:44.988Z,5.88
2023-05-21T18:08:12.796Z,5.32
2023-05-21T18:10:40.757Z,5.40
2023-05-21T18:13:09.995Z,6.45
2023-05-21T18:15:38.281Z,5.80
2023-05-21T18:18:06.736Z,5.78
2023-05-21T18:20:35.563Z,6.05
2023-05-21T18:23:03.570Z,5.50
2023-05-21T18:25:31.545Z,6.18
2023-05-21T18:28:00.171Z,6.78
2023-05-21T18:30:29.447Z,6.03
2023-05-21T18:32:57.412Z,6.75
2023-05-21T18:35:27.217Z,6.30
2023-05-21T18:37:55.445Z,6.20
2023-05-21T18:40:25.054Z,5.65
2023-05-21T18:42:53.222Z,6.20
2023-05-21T18:45:21.100Z,5.60
2023-05-21T18:47:50.371Z,5.57
2023-05-21T18:50:19.403Z,5.75
2023-05-21T18:52:47.656Z,5.65
2023-05-21T18:55:15.754Z,5.38
2023-05-21T18:57:43.613Z,5.93
2023-05-21T19:00:12.835Z,5.10
2023-05-21T19:02:41.015Z,4.32
2023-05-21T19:05:11.063Z,5.43
2023-05-21T19:07:41.414Z,5.43
2023-05-21T19:10:10.262Z,4.63
2023-05-21T19:12:39.532Z,5.40
2023-05-21T19:15:08.870Z,4.43
2023-05-21T19:17:39.069Z,4.65
2023-05-21T19:20:09.279Z,4.75
2023-05-21T19:22:38.968Z,5.10
2023-05-21T19:25:07.693Z,4.78
2023-05-21T19:27:35.495Z,5.05
2023-05-21T19:30:03.378Z,4.63
2023-05-21T19:32:31.513Z,4.57
2023-05-21T19:34:59.326Z,5.10
2023-05-21T19:37:28.316Z,5.30
2023-05-21T19:39:57.523Z,5.55
2023-05-21T19:42:25.553Z,4.72
2023-05-21T19:44:53.423Z,6.03
2023-05-21T19:47:21.242Z,5.50
2023-05-21T19:49:49.108Z,7.55
2023-05-21T19:52:17.002Z,5.60
2023-05-21T19:54:46.056Z,6.00
2023-05-21T19:57:15.518Z,5.32
2023-05-21T19:59:43.315Z,5.05
2023-05-21T20:02:15.114Z,6.07
2023-05-21T20:04:43.129Z,6.30
2023-05-21T20:07:11.012Z,5.32
2023-05-21T20:09:39.548Z,6.10
2023-05-21T20:12:08.196Z,5.38
2023-05-21T20:14:37.384Z,5.47
2023-05-21T20:17:07.083Z,6.05
2023-05-21T20:19:35.902Z,5.65
2023-05-21T20:22:04.008Z,5.78
2023-05-21T20:24:32.185Z,7.05
2023-05-21T20:27:01.666Z,5.97
2023-05-21T20:29:29.944Z,5.93
2023-05-21T20:31:59.256Z,6.38
2023-05-21T20:34:28.134Z,5.75
2023-05-21T20:36:58.136Z,5.90
2023-05-21T20:39:27.396Z,5.80
2023-05-21T20:41:56.108Z,6.18
2023-05-21T20:44:25.946Z,6.35
2023-05-21T20:46:54.065Z,6.15
2023-05-21T20:49:24.834Z,6.32
2023-05-21T20:51:52.966Z,5.82
2023-05-21T20:54:22.175Z,5.90
2023-05-21T20:56:50.958Z,5.80
2023-05-21T20:59:18.905Z,5.78
2023-05-21T21:01:47.024Z,6.25
2023-05-21T21:04:14.913Z,6.50
2023-05-21T21:06:46.602Z,6.05
2023-05-21T21:09:14.468Z,7.38
2023-05-21T21:11:45.041Z,6.50
2023-05-21T21:14:13.767Z,6.40
2023-05-21T21:16:41.908Z,5.95
2023-05-21T21:19:09.811Z,7.07
2023-05-21T21:21:37.622Z,6.50
2023-05-21T21:24:07.756Z,6.68
2023-05-21T21:26:35.576Z,7.00
2023-05-21T21:29:03.587Z,7.53
2023-05-21T21:31:31.740Z,8.27
2023-05-21T21:33:59.656Z,8.35
2023-05-21T21:36:28.799Z,7.43
2023-05-21T21:38:56.900Z,7.80
2023-05-21T21:41:26.383Z,7.10
2023-05-21T21:43:54.232Z,8.73
2023-05-21T21:46:22.222Z,7.93
2023-05-21T21:48:50.079Z,7.65
2023-05-21T21:51:18.123Z,8.13
2023-05-21T21:53:46.058Z,8.35
2023-05-21T21:56:13.897Z,8.00
2023-05-21T21:58:43.134Z,9.02
2023-05-21T22:01:10.960Z,9.27
2023-05-21T22:03:38.845Z,8.98
2023-05-21T22:06:06.981Z,8.48
2023-05-21T22:08:34.839Z,8.80
2023-05-21T22:11:03.179Z,9.57
2023-05-21T22:13:30.982Z,8.82
2023-05-21T22:16:01.920Z,9.68
2023-05-21T22:18:40.168Z,9.50
2023-05-21T22:21:09.728Z,9.52
2023-05-21T22:23:37.962Z,9.68
2023-05-21T22:26:05.950Z,9.07
2023-05-21T22:28:33.894Z,9.32
2023-05-21T22:31:03.359Z,9.98
2023-05-21T22:33:31.345Z,9.10
2023-05-21T22:35:59.188Z,10.75
2023-05-21T22:38:27.008Z,10.02
2023-05-21T22:40:54.889Z,9.90
2023-05-21T22:43:22.746Z,9.65
2023-05-21T22:45:50.570Z,10.35
2023-05-21T22:48:22.027Z,10.35
2023-05-21T22:50:50.349Z,10.32
2023-05-21T22:53:18.629Z,9.93
2023-05-21T22:55:46.615Z,9.98
2023-05-21T22:58:14.423Z,10.48
2023-05-21T23:00:42.617Z,10.48
2023-05-21T23:03:11.292Z,9.77
2023-05-21T23:05:40.759Z,10.65
2023-05-21T23:08:08.733Z,10.50
2023-05-21T23:10:36.632Z,10.82
2023-05-21T23:13:04.590Z,10.45
2023-05-21T23:15:32.438Z,10.55
2023-05-21T23:18:01.394Z,9.50
2023-05-21T23:20:29.261Z,11.88
2023-05-21T23:22:58.483Z,11.18
2023-05-21T23:25:26.253Z,11.60
2023-05-21T23:27:54.017Z,9.95
2023-05-21T23:30:21.814Z,9.98
2023-05-21T23:32:49.661Z,10.23
2023-05-21T23:35:17.593Z,10.73
2023-05-21T23:37:45.382Z,10.52
2023-05-21T23:40:14.998Z,9.88
2023-05-21T23:42:42.916Z,11.27
2023-05-21T23:45:11.440Z,11.30
2023-05-21T23:47:39.292Z,10.98
2023-05-21T23:50:08.519Z,9.48
2023-05-21T23:52:36.441Z,10.02
2023-05-21T23:55:04.433Z,10.60
2023-05-21T23:57:33.627Z,10.63
